Time;durP1;ratioP1;P1;durP2;ratioP2;P2;SDS_P1;SDS_P2;PMS_P1;PMS_P2;Temp;Humidity;BMP_temperature;BMP_pressure;BME280_temperature;BME280_humidity;BME280_pressure;Samples;Min_cycle;Max_cycle;Signal;HPM_P1;HPM_P2
2023/11/24 00:00:02;;;;;;;4.13;1.50;;;11.00;99.90;;;;;;5073479;28;20503;-70
2023/11/24 00:02:27;;;;;;;9.50;2.60;;;10.90;99.90;;;;;;5073453;28;20484;-69
2023/11/24 00:04:53;;;;;;;6.73;2.30;;;10.90;99.90;;;;;;5073589;28;20162;-69
2023/11/24 00:07:18;;;;;;;6.60;2.10;;;10.80;99.90;;;;;;5054773;28;20714;-69
2023/11/24 00:09:44;;;;;;;7.03;1.97;;;10.80;99.90;;;;;;5073431;28;20232;-70
2023/11/24 00:12:10;;;;;;;12.33;3.03;;;10.80;99.90;;;;;;5073419;28;20162;-69
2023/11/24 00:14:36;;;;;;;5.63;2.00;;;10.80;99.90;;;;;;5072880;28;20456;-69
2023/11/24 00:17:02;;;;;;;7.37;2.50;;;10.70;99.90;;;;;;5072954;28;20404;-69
2023/11/24 00:19:27;;;;;;;9.20;2.20;;;10.70;99.90;;;;;;5073162;28;20190;-69
2023/11/24 00:21:53;;;;;;;10.90;3.20;;;10.70;99.90;;;;;;5072109;28;20154;-69
2023/11/24 00:24:18;;;;;;;3.60;1.47;;;10.70;99.90;;;;;;5073125;28;20189;-69
2023/11/24 00:26:44;;;;;;;8.70;2.47;;;10.70;99.90;;;;;;5072813;28;20633;-69
2023/11/24 00:29:10;;;;;;;8.87;2.53;;;10.60;99.90;;;;;;5072926;28;20190;-69
2023/11/24 00:31:36;;;;;;;6.73;2.43;;;10.60;99.90;;;;;;5072859;28;20697;-69
2023/11/24 00:34:02;;;;;;;15.73;2.47;;;10.60;99.90;;;;;;5072813;28;20455;-69
2023/11/24 00:36:28;;;;;;;14.07;2.80;;;10.60;99.90;;;;;;5072749;28;20396;-69
2023/11/24 00:38:54;;;;;;;9.80;2.40;;;10.50;99.90;;;;;;5072749;28;20211;-69
2023/11/24 00:41:20;;;;;;;15.63;3.50;;;10.50;99.90;;;;;;5072757;28;20630;-69
2023/11/24 00:43:47;;;;;;;9.00;2.47;;;10.50;99.90;;;;;;5072780;28;20404;-69
2023/11/24 00:46:13;;;;;;;9.90;2.70;;;10.50;99.90;;;;;;5072299;28;20170;-69
2023/11/24 00:48:39;;;;;;;9.63;3.03;;;10.50;99.90;;;;;;5072539;28;20404;-69
2023/11/24 00:51:05;;;;;;;9.43;2.70;;;10.50;99.90;;;;;;5072605;28;20416;-69
2023/11/24 00:53:31;;;;;;;17.90;3.23;;;10.50;99.90;;;;;;5072432;28;20457;-69
2023/11/24 00:55:57;;;;;;;11.93;2.17;;;10.50;99.90;;;;;;5072313;28;20521;-69
2023/11/24 00:58:23;;;;;;;10.10;3.07;;;10.50;99.90;;;;;;5072410;28;20488;-69
2023/11/24 01:00:48;;;;;;;12.13;3.20;;;10.50;99.90;;;;;;5072180;28;20186;-69
2023/11/24 01:03:15;;;;;;;11.47;2.70;;;10.50;99.90;;;;;;5072402;28;20170;-69
2023/11/24 01:05:41;;;;;;;5.40;2.30;;;10.50;99.90;;;;;;5072165;28;20176;-69
2023/11/24 01:08:06;;;;;;;10.90;3.00;;;10.50;99.90;;;;;;5072367;28;20487;-69
2023/11/24 01:10:32;;;;;;;10.23;2.10;;;10.40;99.90;;;;;;5072000;28;20272;-69
2023/11/24 01:12:58;;;;;;;10.30;2.67;;;10.40;99.90;;;;;;5072180;28;20194;-69
2023/11/24 01:15:24;;;;;;;11.13;2.67;;;10.40;99.90;;;;;;5071961;28;20208;-69
2023/11/24 01:17:49;;;;;;;9.80;2.50;;;10.40;99.90;;;;;;5072181;28;20420;-69
2023/11/24 01:20:16;;;;;;;11.13;2.40;;;10.30;99.90;;;;;;5072055;28;20668;-69
2023/11/24 01:22:43;;;;;;;14.27;2.70;;;10.30;99.90;;;;;;5072167;28;20245;-69
2023/11/24 01:25:09;;;;;;;10.37;2.57;;;10.30;99.90;;;;;;5072112;28;20952;-69
2023/11/24 01:27:35;;;;;;;11.47;2.10;;;10.30;99.90;;;;;;5054161;28;20420;-69
2023/11/24 01:30:00;;;;;;;15.60;3.43;;;10.30;99.90;;;;;;5071776;28;20419;-69
2023/11/24 01:32:26;;;;;;;10.40;3.07;;;10.30;99.90;;;;;;5053439;28;20409;-69
2023/11/24 01:34:52;;;;;;;10.20;2.93;;;10.30;99.90;;;;;;5071838;28;20598;-69
2023/11/24 01:37:17;;;;;;;9.33;2.67;;;10.30;99.90;;;;;;5071636;28;20181;-69
2023/11/24 01:39:43;;;;;;;9.83;2.90;;;10.30;99.90;;;;;;5071746;28;20182;-69
2023/11/24 01:42:09;;;;;;;13.03;3.23;;;10.20;99.90;;;;;;5071740;28;20598;-69
2023/11/24 01:44:34;;;;;;;16.47;3.13;;;10.20;99.90;;;;;;5071878;28;20177;-69
2023/11/24 01:47:00;;;;;;;8.60;2.50;;;10.20;99.90;;;;;;5071655;28;20166;-69
2023/11/24 01:49:27;;;;;;;16.77;2.67;;;10.20;99.90;;;;;;5071725;28;20194;-69
2023/11/24 01:51:55;;;;;;;12.27;2.20;;;10.20;99.90;;;;;;5071612;28;20436;-69
2023/11/24 01:54:24;;;;;;;5.50;2.67;;;10.10;99.90;;;;;;5071581;28;20475;-69
2023/11/24 01:56:51;;;;;;;21.93;2.97;;;10.00;99.90;;;;;;5071506;28;20975;-69
2023/11/24 01:59:17;;;;;;;9.43;2.50;;;9.90;99.90;;;;;;5053721;28;20460;-69
2023/11/24 02:01:43;;;;;;;6.87;2.17;;;9.90;99.90;;;;;;5071576;28;20404;-69
2023/11/24 02:04:08;;;;;;;8.83;3.30;;;9.80;99.90;;;;;;5071746;28;20815;-69
2023/11/24 02:06:34;;;;;;;9.33;2.10;;;9.90;99.90;;;;;;5053555;28;20178;-69
2023/11/24 02:08:59;;;;;;;9.57;2.03;;;9.90;99.90;;;;;;5071604;28;20186;-69
2023/11/24 02:11:25;;;;;;;9.73;2.47;;;10.00;99.90;;;;;;5071553;28;20174;-69
2023/11/24 02:13:51;;;;;;;8.10;2.70;;;10.00;99.90;;;;;;5071540;28;20273;-69
2023/11/24 02:16:18;;;;;;;8.90;2.07;;;10.00;99.90;;;;;;5071428;28;20168;-69
2023/11/24 02:18:44;;;;;;;3.37;2.20;;;10.00;99.90;;;;;;5071538;28;20963;-69
2023/11/24 02:21:10;;;;;;;5.73;2.70;;;10.00;99.90;;;;;;5071556;28;20439;-69
2023/11/24 02:23:36;;;;;;;7.60;1.93;;;10.00;99.90;;;;;;5071673;28;20190;-68
2023/11/24 02:26:02;;;;;;;12.67;2.40;;;9.90;99.90;;;;;;5071339;28;20822;-68
2023/11/24 02:28:27;;;;;;;4.73;1.23;;;9.90;99.90;;;;;;5071355;28;20216;-68
2023/11/24 02:30:59;;;;;;;6.20;2.30;;;9.80;99.90;;;;;;5053260;28;20677;-68
2023/11/24 02:33:25;;;;;;;12.20;3.03;;;9.80;99.90;;;;;;5071454;28;20681;-69
2023/11/24 02:35:50;;;;;;;6.20;2.37;;;9.70;99.90;;;;;;5071219;28;20447;-68
2023/11/24 02:38:16;;;;;;;3.53;1.93;;;9.60;99.90;;;;;;5071365;28;20922;-69
2023/11/24 02:40:43;;;;;;;9.10;2.13;;;9.50;99.90;;;;;;5071250;28;20186;-68
2023/11/24 02:43:09;;;;;;;12.73;2.37;;;9.30;99.90;;;;;;5071290;28;20256;-68
2023/11/24 02:45:35;;;;;;;11.80;2.10;;;9.10;99.90;;;;;;5073049;28;20433;-68
2023/11/24 02:48:00;;;;;;;11.43;3.43;;;9.00;99.90;;;;;;5075002;28;20779;-68
2023/11/24 02:50:26;;;;;;;5.47;1.67;;;8.90;99.90;;;;;;5074938;28;20251;-68
2023/11/24 02:52:52;;;;;;;11.10;3.20;;;8.90;99.90;;;;;;5074727;28;20225;-68
2023/11/24 02:55:18;;;;;;;6.60;2.07;;;8.80;99.90;;;;;;5074805;28;20267;-68
2023/11/24 02:57:44;;;;;;;5.20;1.87;;;8.80;99.90;;;;;;5074774;28;20165;-68
2023/11/24 03:00:12;;;;;;;13.23;2.30;;;8.70;99.90;;;;;;5074321;28;20416;-69
2023/11/24 03:02:39;;;;;;;2.97;1.83;;;8.70;99.90;;;;;;5074342;28;20186;-69
2023/11/24 03:05:06;;;;;;;7.50;1.97;;;8.70;99.90;;;;;;5074768;28;20401;-68
2023/11/24 03:07:32;;;;;;;8.03;1.77;;;8.60;99.90;;;;;;5074574;28;20393;-69
2023/11/24 03:09:57;;;;;;;8.50;3.27;;;8.60;99.90;;;;;;5074468;28;20890;-68
2023/11/24 03:12:23;;;;;;;2.90;2.03;;;8.50;99.90;;;;;;5056751;28;20415;-68
2023/11/24 03:14:48;;;;;;;6.53;1.80;;;8.50;99.90;;;;;;5074408;28;20186;-68
2023/11/24 03:17:14;;;;;;;6.00;1.80;;;8.50;99.90;;;;;;5074431;28;20257;-68
2023/11/24 03:19:39;;;;;;;3.90;1.67;;;8.50;99.90;;;;;;5074361;28;20721;-68
2023/11/24 03:22:05;;;;;;;4.60;1.80;;;8.50;99.90;;;;;;5074334;28;20663;-68
2023/11/24 03:24:30;;;;;;;4.83;1.80;;;8.40;99.90;;;;;;5074380;28;20536;-69
2023/11/24 03:26:56;;;;;;;10.80;1.83;;;8.40;99.90;;;;;;5056327;28;20174;-68
2023/11/24 03:29:21;;;;;;;2.80;1.67;;;8.30;99.90;;;;;;5074285;28;20265;-68
2023/11/24 03:31:47;;;;;;;17.63;2.43;;;8.20;99.90;;;;;;5074209;28;20180;-68
2023/11/24 03:34:13;;;;;;;2.97;1.30;;;8.10;99.90;;;;;;5074038;28;20194;-68
2023/11/24 03:36:38;;;;;;;17.27;2.07;;;8.10;99.90;;;;;;5074130;28;20163;-68
2023/11/24 03:39:04;;;;;;;7.27;1.77;;;8.00;99.90;;;;;;5074102;28;20183;-68
2023/11/24 03:41:29;;;;;;;5.67;1.60;;;8.00;99.90;;;;;;5073984;28;20162;-68
2023/11/24 03:43:55;;;;;;;11.10;3.53;;;8.00;99.90;;;;;;5073998;28;20653;-68
2023/11/24 03:46:20;;;;;;;3.90;1.83;;;8.00;99.90;;;;;;5073792;28;20174;-68
2023/11/24 03:48:47;;;;;;;15.43;3.47;;;8.10;99.90;;;;;;5074005;28;20173;-68
2023/11/24 03:51:18;;;;;;;14.27;3.03;;;8.10;99.90;;;;;;5073578;28;20660;-68
2023/11/24 03:53:44;;;;;;;8.17;1.90;;;8.10;99.90;;;;;;5055658;28;20819;-68
2023/11/24 03:56:09;;;;;;;13.80;1.80;;;8.10;99.90;;;;;;5073573;28;20397;-68
2023/11/24 03:58:35;;;;;;;6.87;2.23;;;8.20;99.90;;;;;;5073711;28;20162;-69
2023/11/24 04:01:01;;;;;;;4.63;1.50;;;8.20;99.90;;;;;;5073599;28;20561;-69
2023/11/24 04:03:26;;;;;;;7.70;1.70;;;8.20;99.90;;;;;;5073673;28;20208;-68
2023/11/24 04:05:52;;;;;;;5.60;1.70;;;8.20;99.90;;;;;;5073464;28;20416;-68
2023/11/24 04:08:18;;;;;;;6.80;1.60;;;8.30;99.90;;;;;;5073546;28;20166;-68
2023/11/24 04:10:44;;;;;;;9.53;2.13;;;8.40;99.90;;;;;;5073345;28;21012;-69
2023/11/24 04:13:09;;;;;;;8.83;2.10;;;8.40;99.90;;;;;;5073351;28;20277;-69
2023/11/24 04:15:35;;;;;;;6.87;1.93;;;8.50;99.90;;;;;;5072969;28;20593;-68
2023/11/24 04:18:00;;;;;;;8.67;2.60;;;8.50;99.90;;;;;;5073009;28;20248;-69
2023/11/24 04:20:26;;;;;;;11.50;2.70;;;8.60;99.90;;;;;;5072929;28;20210;-69
2023/11/24 04:22:51;;;;;;;10.20;2.93;;;8.60;99.90;;;;;;5073179;28;20174;-68
2023/11/24 04:25:18;;;;;;;5.80;2.10;;;8.60;99.90;;;;;;5073150;28;20651;-68
2023/11/24 04:27:44;;;;;;;3.70;1.50;;;8.60;99.90;;;;;;5073187;28;20239;-68
2023/11/24 04:30:10;;;;;;;12.10;1.93;;;8.50;99.90;;;;;;5072957;28;20436;-69
2023/11/24 04:32:36;;;;;;;2.90;1.40;;;8.60;99.90;;;;;;5073000;28;20166;-68
2023/11/24 04:35:01;;;;;;;5.00;1.53;;;8.60;99.90;;;;;;5055224;28;20461;-69
2023/11/24 04:37:27;;;;;;;6.60;1.83;;;8.60;99.90;;;;;;5072744;28;20186;-69
2023/11/24 04:39:53;;;;;;;4.27;1.40;;;8.50;99.90;;;;;;5072799;28;20448;-69
2023/11/24 04:42:18;;;;;;;5.00;1.70;;;8.60;99.90;;;;;;5072832;28;20270;-68
2023/11/24 04:44:45;;;;;;;3.77;1.43;;;8.50;99.90;;;;;;5072773;28;20176;-69
2023/11/24 04:47:11;;;;;;;10.90;2.70;;;8.50;99.90;;;;;;5072624;28;20163;-68
2023/11/24 04:49:36;;;;;;;3.13;1.57;;;8.50;99.90;;;;;;5072786;28;20439;-68
2023/11/24 04:52:03;;;;;;;10.03;1.97;;;8.50;99.90;;;;;;5072361;28;20231;-69
2023/11/24 04:54:29;;;;;;;10.77;1.70;;;8.50;99.90;;;;;;5072395;28;20194;-68
2023/11/24 04:56:56;;;;;;;10.50;2.20;;;8.40;99.90;;;;;;5072458;28;20423;-69
2023/11/24 04:59:23;;;;;;;5.30;1.70;;;8.30;99.90;;;;;;5072494;28;20178;-70
2023/11/24 05:01:49;;;;;;;2.67;1.30;;;8.30;99.90;;;;;;5072443;28;20483;-69
2023/11/24 05:04:15;;;;;;;7.77;1.50;;;8.20;99.90;;;;;;5072455;28;20454;-69
2023/11/24 05:06:41;;;;;;;7.53;2.27;;;8.10;99.90;;;;;;5054150;28;20417;-69
2023/11/24 05:09:07;;;;;;;7.03;1.40;;;8.00;99.90;;;;;;5071781;28;20504;-69
2023/11/24 05:11:33;;;;;;;13.87;1.57;;;7.90;99.90;;;;;;5072283;28;20927;-69
2023/11/24 05:13:59;;;;;;;7.43;1.60;;;7.80;99.90;;;;;;5072265;28;20483;-69
2023/11/24 05:16:25;;;;;;;10.77;1.50;;;7.70;99.90;;;;;;5072188;28;20167;-69
2023/11/24 05:18:52;;;;;;;3.43;1.30;;;7.70;99.90;;;;;;5072172;28;20158;-69
2023/11/24 05:21:18;;;;;;;2.47;1.40;;;7.60;99.90;;;;;;5072192;28;20404;-69
2023/11/24 05:23:44;;;;;;;4.10;1.97;;;7.60;99.90;;;;;;5072216;28;20423;-69
2023/11/24 05:26:09;;;;;;;5.50;1.30;;;7.60;99.90;;;;;;5053967;28;20930;-69
2023/11/24 05:28:35;;;;;;;10.63;1.73;;;7.50;99.90;;;;;;5072153;28;20171;-69
2023/11/24 05:31:03;;;;;;;3.57;1.63;;;7.60;99.90;;;;;;5071945;28;20190;-69
2023/11/24 05:33:29;;;;;;;5.53;1.60;;;7.60;99.90;;;;;;5071948;28;20182;-69
2023/11/24 05:35:56;;;;;;;5.87;1.70;;;7.80;99.90;;;;;;5071832;28;20404;-69
2023/11/24 05:38:22;;;;;;;8.50;1.30;;;7.90;99.90;;;;;;5071865;28;20435;-69
2023/11/24 05:40:49;;;;;;;4.80;1.70;;;7.90;99.90;;;;;;5071805;28;20473;-69
2023/11/24 05:43:15;;;;;;;2.83;1.20;;;8.00;99.90;;;;;;5071936;28;20412;-69
2023/11/24 05:45:41;;;;;;;5.13;1.37;;;8.00;99.90;;;;;;5071792;28;20431;-69
2023/11/24 05:48:06;;;;;;;11.13;1.47;;;8.10;99.90;;;;;;5071779;28;20449;-69
2023/11/24 05:50:32;;;;;;;4.33;2.13;;;8.10;99.90;;;;;;5071775;28;20190;-69
2023/11/24 05:52:57;;;;;;;10.40;1.80;;;8.20;99.90;;;;;;5071623;28;20213;-69
2023/11/24 05:55:23;;;;;;;10.40;1.80;;;8.20;99.90;;;;;;5071663;28;20515;-69
2023/11/24 05:57:50;;;;;;;6.07;1.90;;;8.20;99.90;;;;;;5071987;28;20241;-69
2023/11/24 06:00:17;;;;;;;5.63;2.23;;;8.20;99.90;;;;;;5053634;28;20428;-69
2023/11/24 06:02:43;;;;;;;5.93;1.43;;;8.20;99.90;;;;;;5071738;28;20408;-69
2023/11/24 06:05:08;;;;;;;19.17;5.73;;;8.30;99.90;;;;;;5071717;28;20404;-69
2023/11/24 06:07:34;;;;;;;2.63;1.93;;;8.30;99.90;;;;;;5071602;28;20409;-69
2023/11/24 06:09:59;;;;;;;2.80;1.30;;;8.30;99.90;;;;;;5071403;28;20209;-69
2023/11/24 06:12:25;;;;;;;3.90;1.73;;;8.30;99.90;;;;;;5071536;28;20193;-69
2023/11/24 06:14:50;;;;;;;7.17;1.40;;;8.30;99.90;;;;;;5071499;28;20194;-69
2023/11/24 06:17:16;;;;;;;11.33;1.30;;;8.30;99.90;;;;;;5071464;28;20166;-69
2023/11/24 06:19:41;;;;;;;15.73;2.10;;;8.30;99.90;;;;;;5071942;28;20189;-69
2023/11/24 06:22:07;;;;;;;4.77;1.73;;;8.40;99.90;;;;;;5075142;28;20192;-69
2023/11/24 06:24:32;;;;;;;5.07;1.97;;;8.40;99.90;;;;;;5075514;28;20219;-69
2023/11/24 06:26:58;;;;;;;6.60;1.43;;;8.40;99.90;;;;;;5075268;28;20162;-69
2023/11/24 06:29:24;;;;;;;15.13;2.10;;;8.40;99.90;;;;;;5075425;28;20556;-69
2023/11/24 06:31:50;;;;;;;2.23;1.20;;;8.40;99.90;;;;;;5075211;28;20403;-69
2023/11/24 06:34:17;;;;;;;2.90;1.37;;;8.40;99.90;;;;;;5075288;28;20645;-69
2023/11/24 06:36:42;;;;;;;5.27;1.63;;;8.50;99.90;;;;;;5075139;28;20163;-69
2023/11/24 06:39:10;;;;;;;9.33;1.80;;;8.50;99.90;;;;;;5075088;28;20431;-69
2023/11/24 06:41:37;;;;;;;1.97;1.00;;;8.50;99.90;;;;;;5075132;28;20162;-69
2023/11/24 06:44:02;;;;;;;8.77;2.03;;;8.50;99.90;;;;;;5074984;28;20407;-69
2023/11/24 06:46:28;;;;;;;6.50;1.50;;;8.50;99.90;;;;;;5074817;28;20396;-69
2023/11/24 06:48:53;;;;;;;9.53;1.63;;;8.50;99.90;;;;;;5074935;28;20181;-69
2023/11/24 06:51:19;;;;;;;8.80;3.70;;;8.50;99.90;;;;;;5074935;28;20221;-69
2023/11/24 06:53:45;;;;;;;1.57;1.00;;;8.40;99.90;;;;;;5074786;28;20202;-69
2023/11/24 06:56:11;;;;;;;12.43;1.60;;;8.40;99.90;;;;;;5074720;28;20400;-69
2023/11/24 06:58:37;;;;;;;2.17;1.37;;;8.30;99.90;;;;;;5074877;28;20461;-69
2023/11/24 07:01:04;;;;;;;3.53;1.07;;;8.30;99.90;;;;;;5074647;28;20183;-69
2023/11/24 07:03:33;;;;;;;5.73;2.57;;;8.30;99.90;;;;;;5074677;28;20169;-69
2023/11/24 07:06:00;;;;;;;3.50;1.60;;;8.30;99.90;;;;;;5074486;28;20409;-69
2023/11/24 07:08:26;;;;;;;3.87;1.67;;;8.30;99.90;;;;;;5074676;28;20491;-69
2023/11/24 07:10:51;;;;;;;2.27;1.10;;;8.30;99.90;;;;;;5074413;28;20504;-69
2023/11/24 07:13:17;;;;;;;11.90;2.87;;;8.40;99.90;;;;;;5074469;28;20198;-69
2023/11/24 07:15:42;;;;;;;3.17;1.70;;;8.40;99.90;;;;;;5074266;28;20201;-69
2023/11/24 07:18:09;;;;;;;2.43;1.20;;;8.40;99.90;;;;;;5074402;28;20194;-69
2023/11/24 07:20:34;;;;;;;4.07;1.43;;;8.40;99.90;;;;;;5074334;28;20293;-69
2023/11/24 07:23:00;;;;;;;5.57;1.37;;;8.40;99.90;;;;;;5073959;28;20426;-69
2023/11/24 07:25:26;;;;;;;4.73;1.87;;;8.50;99.90;;;;;;5073677;28;20179;-69
2023/11/24 07:27:51;;;;;;;6.13;1.80;;;8.50;99.90;;;;;;5074181;28;20178;-69
2023/11/24 07:30:18;;;;;;;6.37;1.63;;;8.50;99.90;;;;;;5073496;28;20970;-69
2023/11/24 07:32:44;;;;;;;7.77;1.83;;;8.60;99.90;;;;;;5074160;28;20533;-69
2023/11/24 07:35:10;;;;;;;5.77;1.87;;;8.50;99.90;;;;;;5074334;28;20400;-69
2023/11/24 07:37:36;;;;;;;7.50;2.27;;;8.50;99.90;;;;;;5074071;28;20172;-69
2023/11/24 07:40:07;;;;;;;11.60;2.23;;;8.50;99.90;;;;;;5073922;28;20225;-69
2023/11/24 07:42:33;;;;;;;10.90;2.00;;;8.50;99.90;;;;;;5074095;28;20162;-69
2023/11/24 07:44:59;;;;;;;7.00;2.43;;;8.60;99.90;;;;;;5073833;28;20408;-69
2023/11/24 07:47:24;;;;;;;8.43;2.67;;;8.60;99.90;;;;;;5073479;28;20770;-69
2023/11/24 07:49:50;;;;;;;4.20;1.70;;;8.60;99.90;;;;;;5073347;28;20580;-69
2023/11/24 07:52:15;;;;;;;11.63;1.93;;;8.60;99.90;;;;;;5073574;28;20209;-69
2023/11/24 07:54:41;;;;;;;8.73;2.20;;;8.60;99.90;;;;;;5055850;28;20277;-69
2023/11/24 07:57:07;;;;;;;5.07;1.40;;;8.50;99.90;;;;;;5073805;28;20177;-69
2023/11/24 07:59:34;;;;;;;8.93;2.93;;;8.50;99.90;;;;;;5073680;28;20186;-69
2023/11/24 08:01:59;;;;;;;1.80;1.13;;;8.50;99.90;;;;;;5073609;28;20400;-69
2023/11/24 08:04:25;;;;;;;1.40;0.83;;;8.40;99.90;;;;;;5073703;28;20963;-69
2023/11/24 08:06:50;;;;;;;3.90;1.30;;;8.10;99.90;;;;;;5073533;28;20518;-69
2023/11/24 08:09:16;;;;;;;1.40;0.80;;;7.80;99.90;;;;;;5073561;28;20656;-69
2023/11/24 08:11:42;;;;;;;3.53;1.00;;;7.40;99.90;;;;;;5073449;28;20174;-69
2023/11/24 08:14:09;;;;;;;1.10;1.00;;;7.20;99.90;;;;;;5055379;28;20457;-69
2023/11/24 08:16:35;;;;;;;2.50;0.70;;;7.00;99.90;;;;;;5073319;28;20415;-69
2023/11/24 08:19:00;;;;;;;1.57;0.60;;;6.90;99.90;;;;;;5073312;28;20432;-69
2023/11/24 08:21:26;;;;;;;3.03;0.87;;;6.90;99.90;;;;;;5073199;28;20167;-69
2023/11/24 08:23:52;;;;;;;4.20;1.27;;;6.80;99.90;;;;;;5073279;28;20537;-69
2023/11/24 08:26:18;;;;;;;1.93;1.30;;;6.70;99.90;;;;;;5073086;28;20178;-69
2023/11/24 08:28:44;;;;;;;4.47;1.57;;;6.70;99.90;;;;;;5055184;28;20227;-70
2023/11/24 08:31:21;;;;;;;3.43;2.00;;;6.80;99.90;;;;;;5073081;28;20420;-69
2023/11/24 08:33:47;;;;;;;2.33;1.83;;;6.90;99.90;;;;;;5073014;28;20970;-69
2023/11/24 08:36:13;;;;;;;10.40;1.90;;;7.00;99.90;;;;;;5072801;28;20496;-69
2023/11/24 08:38:39;;;;;;;3.10;2.00;;;7.70;99.90;;;;;;5072975;28;20158;-69
2023/11/24 08:41:16;;;;;;;5.10;1.77;;;8.90;99.90;;;;;;5072839;28;20405;-70
2023/11/24 08:43:42;;;;;;;9.53;2.13;;;10.30;99.90;;;;;;5054195;28;20170;-69
2023/11/24 08:46:08;;;;;;;2.17;1.27;;;10.80;99.90;;;;;;5072604;28;20408;-69
2023/11/24 08:48:35;;;;;;;4.17;1.13;;;11.00;99.90;;;;;;5054810;28;20752;-70
2023/11/24 08:51:01;;;;;;;1.93;1.80;;;11.20;99.90;;;;;;5072595;28;20421;-69
2023/11/24 08:53:27;;;;;;;3.67;1.67;;;11.70;99.90;;;;;;5072410;28;21043;-69
2023/11/24 08:55:53;;;;;;;3.40;1.43;;;11.90;99.90;;;;;;5072457;28;20162;-70
2023/11/24 08:58:18;;;;;;;3.23;1.60;;;11.80;99.90;;;;;;5072501;28;20400;-70
2023/11/24 09:00:45;;;;;;;1.90;1.47;;;11.70;99.90;;;;;;5054529;28;20478;-70
2023/11/24 09:03:12;;;;;;;13.73;3.00;;;11.70;99.90;;;;;;5072541;28;20168;-70
2023/11/24 09:05:38;;;;;;;2.80;1.77;;;11.70;99.90;;;;;;5072092;28;20470;-70
2023/11/24 09:08:05;;;;;;;3.40;1.70;;;11.70;99.90;;;;;;5072671;28;20409;-69
2023/11/24 09:10:32;;;;;;;2.77;1.50;;;12.10;99.90;;;;;;5072212;28;20420;-70
2023/11/24 09:12:57;;;;;;;3.97;1.60;;;13.80;99.90;;;;;;5072320;28;20401;-69
2023/11/24 09:15:24;;;;;;;1.63;1.03;;;14.90;99.90;;;;;;5072353;28;20453;-69
2023/11/24 09:17:49;;;;;;;7.60;1.30;;;14.80;99.90;;;;;;5072337;28;20186;-70
2023/11/24 09:20:16;;;;;;;3.87;1.30;;;14.30;99.90;;;;;;5072187;28;20804;-70
2023/11/24 09:22:43;;;;;;;5.10;1.17;;;13.80;99.90;;;;;;5072184;28;20163;-69
2023/11/24 09:25:09;;;;;;;4.30;1.40;;;13.30;99.90;;;;;;5072216;28;20404;-70
2023/11/24 09:27:34;;;;;;;3.83;1.27;;;13.00;99.90;;;;;;5072071;28;20898;-70
2023/11/24 09:30:04;;;;;;;3.70;1.33;;;13.00;99.90;;;;;;5072029;28;20182;-69
2023/11/24 09:32:31;;;;;;;2.57;1.40;;;13.00;99.90;;;;;;5054258;28;20219;-69
2023/11/24 09:34:56;;;;;;;1.37;1.23;;;13.00;99.90;;;;;;5071994;28;20448;-70
2023/11/24 09:37:22;;;;;;;4.63;1.47;;;12.70;99.90;;;;;;5071810;28;20794;-69
2023/11/24 09:39:48;;;;;;;2.50;1.00;;;12.30;99.90;;;;;;5072022;28;20182;-70
2023/11/24 09:42:14;;;;;;;2.23;1.30;;;11.90;99.90;;;;;;5071932;28;20260;-69
2023/11/24 09:44:42;;;;;;;3.90;1.30;;;11.60;99.90;;;;;;5072028;28;20489;-69
2023/11/24 09:47:09;;;;;;;5.03;1.30;;;11.30;99.90;;;;;;5071639;28;20174;-69
2023/11/24 09:49:35;;;;;;;1.30;1.07;;;11.20;99.90;;;;;;5071813;28;20820;-69
2023/11/24 09:52:02;;;;;;;2.17;1.97;;;11.00;99.90;;;;;;5071713;28;20447;-70
2023/11/24 09:54:28;;;;;;;3.00;1.30;;;10.90;99.90;;;;;;5071511;28;20991;-69
2023/11/24 09:56:53;;;;;;;5.03;1.40;;;10.70;99.90;;;;;;5071706;28;20483;-70
2023/11/24 09:59:19;;;;;;;2.90;1.43;;;10.60;99.90;;;;;;5071736;28;20672;-69
2023/11/24 10:01:47;;;;;;;5.60;1.40;;;10.50;99.90;;;;;;5071582;28;20166;-69
2023/11/24 10:04:14;;;;;;;3.30;1.40;;;10.30;99.90;;;;;;5071723;28;20181;-69
2023/11/24 10:06:43;;;;;;;4.67;1.37;;;10.20;99.90;;;;;;5071567;28;20860;-69
2023/11/24 10:09:13;;;;;;;3.03;1.40;;;10.00;99.90;;;;;;5053593;28;20433;-70
2023/11/24 10:11:40;;;;;;;4.97;0.93;;;9.90;99.90;;;;;;5071577;28;20401;-70
2023/11/24 10:14:12;;;;;;;1.73;1.07;;;9.80;99.90;;;;;;5071314;28;20463;-69
2023/11/24 10:16:40;;;;;;;3.57;1.00;;;9.70;99.90;;;;;;5071420;28;20507;-69
2023/11/24 10:19:14;;;;;;;1.87;1.13;;;9.60;99.90;;;;;;5071302;28;20416;-70
2023/11/24 10:21:43;;;;;;;3.10;1.27;;;9.50;99.90;;;;;;5071525;28;20429;-69
2023/11/24 10:24:08;;;;;;;3.13;2.10;;;9.30;99.90;;;;;;5071322;28;20405;-70
2023/11/24 10:26:34;;;;;;;3.10;1.07;;;9.20;99.90;;;;;;5071453;28;20411;-69
2023/11/24 10:28:59;;;;;;;5.03;2.00;;;9.10;99.90;;;;;;5071507;28;20746;-69
2023/11/24 10:31:26;;;;;;;8.77;1.77;;;9.10;99.90;;;;;;5071440;28;20533;-69
2023/11/24 10:33:51;;;;;;;7.43;1.40;;;9.00;99.90;;;;;;5071201;28;20281;-70
2023/11/24 10:36:21;;;;;;;3.83;1.30;;;8.90;99.90;;;;;;5071205;28;20483;-70
2023/11/24 10:38:46;;;;;;;10.83;1.70;;;9.00;99.90;;;;;;5071329;28;20641;-70
2023/11/24 10:41:18;;;;;;;6.07;0.90;;;9.00;99.90;;;;;;5071414;28;20436;-70
2023/11/24 10:43:48;;;;;;;2.70;1.10;;;9.10;99.90;;;;;;5071719;28;20672;-70
2023/11/24 10:46:16;;;;;;;2.30;1.03;;;9.10;99.90;;;;;;5053083;28;20408;-69
2023/11/24 10:48:55;;;;;;;9.13;2.13;;;9.10;99.90;;;;;;5071247;28;20809;-69
2023/11/24 10:51:42;;;;;;;1.97;0.90;;;9.00;99.90;;;;;;5071251;28;20771;-69
2023/11/24 10:54:18;;;;;;;3.60;0.90;;;9.10;99.90;;;;;;5071652;28;20478;-69
2023/11/24 10:56:45;;;;;;;2.00;1.20;;;9.00;99.90;;;;;;5071284;28;20399;-69
2023/11/24 10:59:13;;;;;;;1.53;1.00;;;9.00;99.90;;;;;;5071129;28;20420;-70
2023/11/24 11:01:39;;;;;;;3.20;0.97;;;9.00;99.90;;;;;;5071372;28;20768;-70
2023/11/24 11:04:05;;;;;;;3.23;0.90;;;9.10;99.90;;;;;;5071126;28;20408;-70
2023/11/24 11:06:44;;;;;;;1.33;0.80;;;9.40;99.90;;;;;;5072767;28;20194;-70
2023/11/24 11:12:29;;;;;;;4.60;1.03;;;10.00;99.90;;;;;;5075037;28;20404;-69
2023/11/24 11:14:56;;;;;;;3.40;1.07;;;10.00;99.90;;;;;;5074661;28;20448;-70
2023/11/24 11:17:25;;;;;;;2.73;1.57;;;9.90;99.90;;;;;;5074407;28;20824;-70
2023/11/24 11:20:12;;;;;;;4.30;1.63;;;9.90;99.90;;;;;;5074537;28;20476;-70
2023/11/24 11:22:40;;;;;;;10.33;1.67;;;10.10;99.90;;;;;;5074740;28;20770;-70
2023/11/24 11:25:25;;;;;;;9.80;1.50;;;10.50;99.90;;;;;;5074578;28;20401;-70
2023/11/24 11:27:52;;;;;;;7.00;1.33;;;11.90;99.90;;;;;;5074425;28;20764;-70
2023/11/24 11:30:22;;;;;;;1.20;0.90;;;13.50;99.90;;;;;;5073715;28;20420;-70
2023/11/24 11:33:10;;;;;;;2.70;1.37;;;15.00;99.90;;;;;;5074133;28;20450;-70
2023/11/24 11:35:35;;;;;;;1.60;1.00;;;16.60;99.90;;;;;;5074033;28;20910;-70
2023/11/24 11:38:03;;;;;;;3.60;1.37;;;17.00;99.90;;;;;;5074143;28;20399;-70
2023/11/24 11:40:35;;;;;;;1.83;1.00;;;17.80;99.90;;;;;;5073936;28;20178;-71
2023/11/24 11:43:08;;;;;;;1.90;1.10;;;18.30;96.10;;;;;;5074111;28;20423;-70
2023/11/24 11:45:46;;;;;;;5.73;1.23;;;18.80;91.00;;;;;;5073871;28;20411;-70
2023/11/24 11:48:13;;;;;;;1.40;1.07;;;18.30;82.10;;;;;;5074040;28;20491;-70
2023/11/24 11:50:51;;;;;;;1.33;1.00;;;17.40;79.30;;;;;;5073797;28;20420;-70
2023/11/24 11:53:16;;;;;;;5.43;2.23;;;16.30;77.90;;;;;;5073772;28;20460;-70
2023/11/24 11:55:42;;;;;;;1.43;0.93;;;15.20;80.50;;;;;;5073691;28;20407;-70
2023/11/24 11:58:12;;;;;;;1.10;0.90;;;14.30;84.90;;;;;;5055954;28;20575;-70
2023/11/24 12:00:39;;;;;;;1.90;0.90;;;13.40;90.50;;;;;;5073755;28;20560;-69
2023/11/24 12:03:05;;;;;;;1.83;0.87;;;12.80;95.80;;;;;;5073479;28;20796;-70
2023/11/24 12:05:32;;;;;;;4.20;1.00;;;12.40;99.90;;;;;;5073412;28;20971;-70
2023/11/24 12:07:58;;;;;;;1.17;0.90;;;12.10;99.90;;;;;;5073481;28;20540;-70
2023/11/24 12:10:29;;;;;;;1.10;0.70;;;11.90;99.90;;;;;;5055648;28;20466;-71
2023/11/24 12:12:55;;;;;;;4.00;0.90;;;11.60;99.90;;;;;;5073573;28;20906;-69
2023/11/24 12:15:23;;;;;;;2.40;1.10;;;11.20;99.90;;;;;;5073359;28;20401;-70
2023/11/24 12:17:52;;;;;;;1.00;0.60;;;10.70;99.90;;;;;;5073486;28;20427;-69
2023/11/24 12:20:18;;;;;;;0.90;0.70;;;10.40;99.90;;;;;;5073261;28;20421;-69
2023/11/24 12:22:45;;;;;;;2.57;0.73;;;10.00;99.90;;;;;;5073263;28;20426;-69
2023/11/24 12:25:12;;;;;;;1.00;0.67;;;9.70;99.90;;;;;;5073340;28;20176;-70
2023/11/24 12:27:41;;;;;;;1.10;0.70;;;9.40;99.90;;;;;;5073066;28;20775;-70
2023/11/24 12:30:10;;;;;;;0.97;0.70;;;9.20;99.90;;;;;;5073012;28;20464;-69
2023/11/24 12:32:37;;;;;;;1.47;0.80;;;8.90;99.90;;;;;;5072952;28;20420;-69
2023/11/24 12:35:07;;;;;;;2.20;1.17;;;9.10;99.90;;;;;;5072944;28;20474;-70
2023/11/24 12:37:32;;;;;;;2.10;0.80;;;9.20;99.90;;;;;;5073071;28;20450;-70
2023/11/24 12:39:59;;;;;;;4.20;0.70;;;9.50;99.90;;;;;;5072956;28;20930;-70
2023/11/24 12:42:28;;;;;;;1.20;0.80;;;10.20;99.90;;;;;;5072952;28;20220;-70
2023/11/24 12:44:55;;;;;;;1.20;0.77;;;11.20;99.90;;;;;;5073186;28;20918;-69
2023/11/24 12:47:24;;;;;;;1.70;1.07;;;11.20;99.90;;;;;;5072679;28;20436;-70
2023/11/24 12:49:56;;;;;;;2.60;0.73;;;10.90;99.90;;;;;;5072694;28;20443;-70